Time;durP1;ratioP1;P1;durP2;ratioP2;P2;SDS_P1;SDS_P2;PMS_P1;PMS_P2;Temp;Humidity;BMP_temperature;BMP_pressure;BME280_temperature;BME280_humidity;BME280_pressure;Samples;Min_cycle;Max_cycle;Signal;HPM_P1;HPM_P2
2024/01/06 00:00:16;;;;;;;28.80;11.80;;;;;;;5.11;97.27;98783.88;6062904;23;20033;-86
2024/01/06 00:02:43;;;;;;;24.45;11.20;;;;;;;5.18;97.22;98785.06;6026427;23;20030;-86
2024/01/06 00:05:14;;;;;;;41.85;15.25;;;;;;;5.20;96.86;98782.31;6091548;23;20030;-86
2024/01/06 00:07:41;;;;;;;55.20;19.63;;;;;;;5.21;96.63;98776.06;6067519;23;20025;-86
2024/01/06 00:10:14;;;;;;;72.93;18.10;;;;;;;5.22;96.94;98783.03;6042774;23;20030;-86
2024/01/06 00:12:44;;;;;;;36.92;15.52;;;;;;;5.07;97.03;98779.03;6078379;23;20026;-86
2024/01/06 00:15:11;;;;;;;37.42;15.95;;;;;;;5.19;96.36;98778.84;6090807;23;20021;-86
2024/01/06 00:17:38;;;;;;;31.08;15.23;;;;;;;5.21;96.58;98783.97;6080011;23;20034;-86
2024/01/06 00:20:06;;;;;;;48.88;18.33;;;;;;;5.21;96.21;98787.41;6090546;23;20125;-86
2024/01/06 00:22:33;;;;;;;39.90;16.02;;;;;;;5.23;96.53;98785.50;6115937;23;20450;-85
2024/01/06 00:25:02;;;;;;;43.63;16.73;;;;;;;5.23;96.31;98784.69;6100150;23;20470;-86
2024/01/06 00:27:29;;;;;;;37.25;16.00;;;;;;;5.20;96.12;98785.75;6070156;23;20036;-86
2024/01/06 00:29:55;;;;;;;34.15;15.43;;;;;;;5.22;95.53;98777.75;6067240;23;20029;-86
2024/01/06 00:32:22;;;;;;;36.85;15.88;;;;;;;5.20;95.24;98783.13;6091370;23;20026;-86
2024/01/06 00:34:49;;;;;;;36.53;15.95;;;;;;;5.27;95.03;98783.47;6090231;23;20033;-86
2024/01/06 00:37:16;;;;;;;25.25;12.20;;;;;;;5.25;94.91;98784.56;6056145;23;20018;-86
2024/01/06 00:39:43;;;;;;;28.52;11.90;;;;;;;5.17;95.11;98777.31;6090688;23;20030;-86
2024/01/06 00:42:10;;;;;;;29.02;12.45;;;;;;;5.23;94.90;98779.41;6091333;23;20029;-86
2024/01/06 00:44:37;;;;;;;33.08;15.27;;;;;;;5.22;94.70;98789.13;6090730;23;20562;-86
2024/01/06 00:47:04;;;;;;;37.72;16.13;;;;;;;5.18;94.25;98790.31;6066674;23;20104;-85
2024/01/06 00:49:30;;;;;;;37.20;16.27;;;;;;;5.08;93.61;98784.16;6067989;23;20042;-86
2024/01/06 00:52:00;;;;;;;43.58;18.38;;;;;;;5.01;93.65;98772.44;6066398;23;20529;-86
2024/01/06 00:54:26;;;;;;;34.58;15.85;;;;;;;5.07;94.26;98786.91;6091032;23;20423;-86
2024/01/06 00:56:53;;;;;;;33.03;13.60;;;;;;;5.07;94.13;98792.19;6066824;23;20053;-86
2024/01/06 00:59:23;;;;;;;42.03;15.05;;;;;;;5.04;94.39;98780.13;6091296;23;20117;-85
2024/01/06 01:01:53;;;;;;;30.88;13.80;;;;;;;5.05;94.19;98784.41;6102662;23;20018;-86
2024/01/06 01:04:20;;;;;;;33.83;14.18;;;;;;;5.04;94.61;98781.88;6090627;23;20097;-85
2024/01/06 01:06:47;;;;;;;35.15;14.63;;;;;;;4.98;94.99;98785.88;6115216;23;20092;-85
2024/01/06 01:09:14;;;;;;;29.85;14.07;;;;;;;4.94;94.96;98782.66;6030872;23;20024;-86
2024/01/06 01:11:41;;;;;;;30.50;14.30;;;;;;;5.02;94.55;98791.72;6090862;23;20086;-85
2024/01/06 01:14:08;;;;;;;30.55;12.82;;;;;;;5.02;94.29;98797.81;6091084;23;20686;-86
2024/01/06 01:16:35;;;;;;;27.60;12.60;;;;;;;5.00;94.40;98799.72;6090981;23;20017;-85
2024/01/06 01:19:04;;;;;;;27.85;13.43;;;;;;;5.00;94.50;98802.38;6044844;23;20026;-86
2024/01/06 01:21:31;;;;;;;26.25;13.25;;;;;;;5.04;94.17;98818.72;6090868;23;20030;-87
2024/01/06 01:23:58;;;;;;;36.33;14.75;;;;;;;5.00;93.92;98829.50;6090817;23;20022;-86
2024/01/06 01:26:25;;;;;;;30.05;13.90;;;;;;;5.03;93.78;98823.16;6113868;23;20049;-86
2024/01/06 01:28:52;;;;;;;35.75;14.95;;;;;;;5.01;94.12;98830.34;6090757;23;20026;-86
2024/01/06 01:31:20;;;;;;;34.88;15.15;;;;;;;4.96;94.33;98836.00;6090581;23;20025;-86
2024/01/06 01:33:47;;;;;;;37.17;15.13;;;;;;;4.98;94.42;98838.47;6042871;23;20387;-87
2024/01/06 01:36:14;;;;;;;37.80;16.27;;;;;;;4.97;94.61;98840.28;6090260;23;20077;-86
2024/01/06 01:38:41;;;;;;;27.65;13.57;;;;;;;4.95;94.84;98850.09;6090036;23;20372;-86
2024/01/06 01:41:08;;;;;;;37.22;14.70;;;;;;;4.87;95.04;98847.25;6041297;23;20026;-86
2024/01/06 01:43:38;;;;;;;31.65;13.85;;;;;;;4.96;94.79;98854.41;6090262;23;20029;-87
2024/01/06 01:46:04;;;;;;;29.95;13.50;;;;;;;4.98;94.61;98852.47;6113263;23;20101;-86
2024/01/06 01:48:34;;;;;;;30.50;14.05;;;;;;;4.92;94.63;98850.34;6089734;23;20089;-86
2024/01/06 01:51:01;;;;;;;37.63;13.27;;;;;;;4.94;94.87;98852.88;6064880;23;20423;-86
2024/01/06 01:53:28;;;;;;;31.92;12.52;;;;;;;4.92;95.05;98854.78;6090331;23;20022;-86
2024/01/06 01:55:57;;;;;;;29.55;12.55;;;;;;;4.87;95.01;98849.06;6089939;23;20117;-86
2024/01/06 01:58:24;;;;;;;31.17;12.95;;;;;;;4.84;95.09;98850.13;6078401;23;20462;-86
2024/01/06 02:00:53;;;;;;;31.35;12.35;;;;;;;4.84;94.87;98850.13;6052617;23;20022;-86
2024/01/06 02:03:21;;;;;;;31.40;13.43;;;;;;;4.88;94.47;98858.59;6065812;23;20080;-86
2024/01/06 02:05:48;;;;;;;22.50;9.68;;;;;;;4.89;94.78;98855.03;6102303;23;20017;-86
2024/01/06 02:08:15;;;;;;;27.10;10.88;;;;;;;4.88;95.32;98859.44;6049440;23;20041;-86
2024/01/06 02:10:42;;;;;;;29.10;11.75;;;;;;;4.92;95.03;98858.25;6036378;23;20081;-86
2024/01/06 02:13:12;;;;;;;28.38;11.90;;;;;;;4.92;94.41;98863.50;6036699;23;20033;-87
2024/01/06 02:15:41;;;;;;;27.90;12.88;;;;;;;4.96;94.67;98864.06;6061738;23;20269;-86
2024/01/06 02:18:08;;;;;;;29.73;11.60;;;;;;;4.93;94.52;98862.53;6064753;23;20015;-86
2024/01/06 02:20:36;;;;;;;26.40;13.48;;;;;;;4.96;94.06;98867.56;6089623;23;20018;-86
2024/01/06 02:23:03;;;;;;;24.50;11.90;;;;;;;4.92;94.39;98871.38;6036552;23;20034;-87
2024/01/06 02:25:33;;;;;;;28.08;13.02;;;;;;;4.94;94.40;98872.09;6077259;23;20470;-86
2024/01/06 02:28:00;;;;;;;26.00;12.48;;;;;;;4.94;94.28;98873.91;6037031;23;20101;-86
2024/01/06 02:30:27;;;;;;;21.35;11.00;;;;;;;4.92;94.38;98879.28;6060584;23;20050;-86
2024/01/06 02:32:54;;;;;;;32.03;12.25;;;;;;;4.85;94.76;98880.72;6061075;23;20026;-86
2024/01/06 02:35:21;;;;;;;21.23;11.00;;;;;;;4.89;94.56;98876.91;6084714;23;20022;-86
2024/01/06 02:37:48;;;;;;;18.55;10.30;;;;;;;4.91;94.32;98877.63;6113938;23;20484;-86
2024/01/06 02:40:15;;;;;;;24.58;11.45;;;;;;;4.89;93.93;98878.72;6065167;23;20026;-86
2024/01/06 02:42:41;;;;;;;21.50;9.75;;;;;;;4.85;93.30;98890.41;6076043;23;20026;-86
2024/01/06 02:45:11;;;;;;;23.08;10.57;;;;;;;4.85;93.14;98887.78;6089338;23;20058;-86
2024/01/06 02:47:38;;;;;;;25.45;10.32;;;;;;;4.76;93.35;98892.00;6089827;23;20042;-86
2024/01/06 02:50:05;;;;;;;25.50;11.63;;;;;;;4.78;93.90;98904.06;6089220;23;21391;-86
2024/01/06 02:52:34;;;;;;;24.58;10.63;;;;;;;4.69;93.92;98893.44;6124330;23;20041;-86
2024/01/06 02:55:01;;;;;;;23.67;9.80;;;;;;;4.66;94.10;98904.22;6089756;23;20017;-86
2024/01/06 02:57:29;;;;;;;16.23;8.98;;;;;;;4.67;93.56;98917.22;6088779;23;20038;-86
2024/01/06 02:59:56;;;;;;;25.67;10.98;;;;;;;4.57;93.18;98911.00;6112893;23;20022;-86
2024/01/06 03:02:26;;;;;;;30.42;10.43;;;;;;;4.67;93.28;98906.69;6065702;23;20026;-86
2024/01/06 03:04:53;;;;;;;26.05;11.00;;;;;;;4.65;93.21;98903.34;6089761;23;20517;-86
2024/01/06 03:07:20;;;;;;;27.58;11.90;;;;;;;4.68;93.16;98915.41;6051809;23;20045;-86
2024/01/06 03:09:46;;;;;;;23.35;10.98;;;;;;;4.75;93.02;98908.72;6065722;23;20022;-86
2024/01/06 03:12:13;;;;;;;28.98;11.65;;;;;;;4.69;93.72;98911.84;6088510;23;20026;-86
2024/01/06 03:14:40;;;;;;;35.03;13.98;;;;;;;4.70;94.11;98922.22;6089636;23;20378;-86
2024/01/06 03:17:10;;;;;;;45.53;14.93;;;;;;;4.65;95.32;98915.66;6088898;23;20022;-86
2024/01/06 03:19:37;;;;;;;37.53;15.05;;;;;;;4.56;96.13;98912.81;6089026;23;20121;-86
2024/01/06 03:22:04;;;;;;;38.67;15.60;;;;;;;4.65;95.48;98910.41;6065386;23;20081;-86
2024/01/06 03:24:31;;;;;;;40.47;15.45;;;;;;;4.68;95.67;98912.78;6092019;23;20562;-86
2024/01/06 03:27:00;;;;;;;43.28;16.10;;;;;;;4.62;95.82;98919.38;6063553;23;20459;-86
2024/01/06 03:29:27;;;;;;;36.58;15.15;;;;;;;4.63;95.76;98917.56;6114451;23;20030;-86
2024/01/06 03:31:57;;;;;;;34.78;15.43;;;;;;;4.55;96.12;98916.41;6080616;23;20470;-87
2024/01/06 03:34:24;;;;;;;40.40;16.15;;;;;;;4.53;97.03;98920.94;6049066;23;20038;-87
2024/01/06 03:36:51;;;;;;;41.42;16.90;;;;;;;4.54;97.43;98919.16;6090769;23;20021;-86
2024/01/06 03:39:20;;;;;;;47.38;15.88;;;;;;;4.51;97.39;98914.13;6089842;23;20442;-86
2024/01/06 03:41:48;;;;;;;47.90;16.55;;;;;;;4.49;97.49;98916.03;6065508;23;20359;-87
2024/01/06 03:44:15;;;;;;;41.67;16.60;;;;;;;4.47;97.31;98912.69;6091499;23;20049;-86
2024/01/06 03:46:42;;;;;;;44.50;16.45;;;;;;;4.45;96.96;98915.44;6066563;23;20044;-86
2024/01/06 03:49:08;;;;;;;35.40;15.05;;;;;;;4.50;96.58;98923.81;6113461;23;20466;-86
2024/01/06 03:51:36;;;;;;;32.63;14.57;;;;;;;4.56;96.10;98918.06;6015978;23;20034;-86
2024/01/06 03:54:03;;;;;;;27.23;12.52;;;;;;;4.50;95.54;98922.94;6087272;23;20026;-86
2024/01/06 03:56:30;;;;;;;23.50;11.63;;;;;;;4.60;95.22;98923.06;6077730;23;20032;-86
2024/01/06 03:58:57;;;;;;;24.85;11.70;;;;;;;4.55;95.04;98916.41;6080598;23;20029;-86
2024/01/06 04:01:24;;;;;;;27.45;12.82;;;;;;;4.59;94.95;98910.91;6090482;23;20045;-86
2024/01/06 04:03:51;;;;;;;27.98;12.43;;;;;;;4.53;95.64;98918.31;6100233;23;20023;-86
2024/01/06 04:06:18;;;;;;;27.38;12.77;;;;;;;4.61;95.12;98922.13;6082771;23;20129;-86
2024/01/06 04:08:44;;;;;;;35.03;13.75;;;;;;;4.60;95.70;98915.19;6077785;23;20049;-86
2024/01/06 04:11:11;;;;;;;33.72;12.95;;;;;;;4.54;95.51;98917.34;6090643;23;20026;-87
2024/01/06 04:13:38;;;;;;;32.45;13.90;;;;;;;4.57;95.66;98913.63;6079923;23;20092;-86
2024/01/06 04:16:05;;;;;;;37.05;14.43;;;;;;;4.53;96.13;98917.47;6076210;23;20033;-86
2024/01/06 04:18:32;;;;;;;30.00;13.73;;;;;;;4.48;96.43;98909.94;6068760;23;20034;-86
2024/01/06 04:20:59;;;;;;;35.00;14.00;;;;;;;4.49;96.39;98913.41;6090396;23;20057;-86
2024/01/06 04:23:26;;;;;;;36.03;13.75;;;;;;;4.55;96.40;98918.16;6090695;23;20033;-86
2024/01/06 04:25:53;;;;;;;31.60;14.05;;;;;;;4.50;96.15;98909.81;6066673;23;22191;-87
2024/01/06 04:28:20;;;;;;;32.78;12.65;;;;;;;4.51;96.36;98922.03;6066704;23;20033;-86
2024/01/06 04:30:51;;;;;;;36.63;14.85;;;;;;;4.52;96.03;98921.88;6101026;23;20049;-86
2024/01/06 04:33:18;;;;;;;34.65;13.98;;;;;;;4.54;96.47;98919.97;6089112;23;20022;-86
2024/01/06 04:35:45;;;;;;;34.85;14.48;;;;;;;4.49;96.71;98913.41;6091311;23;20018;-86
2024/01/06 04:38:11;;;;;;;32.30;13.55;;;;;;;4.50;96.23;98918.56;6065920;23;20096;-86
2024/01/06 04:40:38;;;;;;;32.63;13.50;;;;;;;4.44;96.89;98915.56;6065791;23;20768;-87
2024/01/06 04:43:05;;;;;;;26.75;11.65;;;;;;;4.43;96.98;98917.34;6090866;23;20025;-86
2024/01/06 04:45:33;;;;;;;32.13;13.32;;;;;;;4.48;96.71;98917.00;6066491;23;20018;-87
2024/01/06 04:48:00;;;;;;;28.23;13.40;;;;;;;4.46;96.73;98909.22;6077818;23;20101;-86
2024/01/06 04:50:27;;;;;;;29.40;13.45;;;;;;;4.46;97.25;98911.03;6114723;23;20046;-86
2024/01/06 04:52:53;;;;;;;29.30;12.98;;;;;;;4.52;96.86;98913.16;6067238;23;20030;-86
2024/01/06 04:55:23;;;;;;;25.58;10.48;;;;;;;4.53;96.53;98920.94;6061773;23;20022;-86
2024/01/06 04:57:50;;;;;;;29.67;12.80;;;;;;;4.54;96.49;98914.72;6056460;23;20620;-86
2024/01/06 05:00:17;;;;;;;29.50;13.32;;;;;;;4.56;96.56;98920.69;6036313;23;20029;-87
2024/01/06 05:02:44;;;;;;;31.73;12.93;;;;;;;4.58;96.88;98912.69;6037939;23;20022;-86
2024/01/06 05:05:10;;;;;;;36.53;15.10;;;;;;;4.52;97.88;98915.78;6062056;23;20031;-86
2024/01/06 05:07:39;;;;;;;38.72;15.07;;;;;;;4.42;98.94;98914.84;6018916;23;20022;-86
2024/01/06 05:10:07;;;;;;;31.75;14.15;;;;;;;4.42;98.67;98915.66;6090163;23;20354;-86
2024/01/06 05:12:34;;;;;;;26.88;12.73;;;;;;;4.48;98.55;98917.00;6041971;23;20092;-86
2024/01/06 05:15:01;;;;;;;37.88;14.20;;;;;;;4.56;97.72;98918.06;6066297;23;20042;-86
2024/01/06 05:17:28;;;;;;;33.38;14.77;;;;;;;4.52;97.89;98927.13;6062101;23;20029;-86
2024/01/06 05:19:55;;;;;;;35.35;13.70;;;;;;;4.60;97.21;98931.78;6088988;23;20030;-86
2024/01/06 05:22:22;;;;;;;39.47;14.73;;;;;;;4.56;97.87;98939.09;6090575;23;20513;-86
2024/01/06 05:24:52;;;;;;;32.80;14.60;;;;;;;4.59;98.16;98937.19;6085605;23;20023;-86
2024/01/06 05:27:20;;;;;;;43.97;15.18;;;;;;;4.58;98.19;98944.25;6065607;23;20041;-86
2024/01/06 05:29:48;;;;;;;36.17;15.23;;;;;;;4.56;98.59;98941.72;6089290;23;20022;-87
2024/01/06 05:32:16;;;;;;;33.65;15.30;;;;;;;4.60;98.59;98938.84;6078554;23;20028;-86
2024/01/06 05:34:44;;;;;;;34.72;16.08;;;;;;;4.56;99.03;98946.16;6114764;23;20794;-87
2024/01/06 05:37:11;;;;;;;30.90;15.50;;;;;;;4.54;99.49;98951.53;6089913;23;20026;-86
2024/01/06 05:39:39;;;;;;;29.17;13.20;;;;;;;4.54;98.61;98946.25;6065430;23;20064;-86
2024/01/06 05:42:07;;;;;;;36.22;15.63;;;;;;;4.63;98.46;98949.13;6090391;23;20041;-86
2024/01/06 05:44:37;;;;;;;32.75;14.63;;;;;;;4.62;98.12;98952.72;6090042;23;20025;-87
2024/01/06 05:47:05;;;;;;;32.55;16.02;;;;;;;4.63;98.26;98949.97;6088315;23;20030;-87
2024/01/06 05:49:31;;;;;;;29.55;13.90;;;;;;;4.62;98.39;98953.56;6113948;23;20331;-87
2024/01/06 05:52:00;;;;;;;33.17;14.38;;;;;;;4.64;98.55;98963.97;6038986;23;20060;-87
2024/01/06 05:54:26;;;;;;;37.47;17.20;;;;;;;4.65;98.78;98970.88;6066304;23;20017;-87
2024/01/06 05:56:55;;;;;;;28.17;13.23;;;;;;;4.65;98.72;98968.25;6088550;23;20688;-87
2024/01/06 05:59:22;;;;;;;23.77;11.23;;;;;;;4.66;98.89;98975.22;6089983;23;20052;-87
2024/01/06 06:01:49;;;;;;;24.52;11.48;;;;;;;4.73;98.06;98968.47;6090663;23;20096;-87
2024/01/06 06:04:18;;;;;;;23.27;11.13;;;;;;;4.70;98.64;98964.31;6113709;23;20351;-87
2024/01/06 06:06:45;;;;;;;23.27;11.00;;;;;;;4.70;98.93;98963.47;6089349;23;20026;-86
2024/01/06 06:09:13;;;;;;;22.60;11.63;;;;;;;4.72;99.06;98966.81;6090812;23;20020;-86
2024/01/06 06:11:40;;;;;;;26.38;12.20;;;;;;;4.69;99.33;98969.69;6089835;23;20030;-86
2024/01/06 06:14:06;;;;;;;27.13;12.40;;;;;;;4.71;99.50;98978.31;6041195;23;20437;-87
2024/01/06 06:16:33;;;;;;;27.83;11.88;;;;;;;4.71;100.00;98981.78;6078650;23;20033;-87
2024/01/06 06:19:00;;;;;;;27.75;13.98;;;;;;;4.73;100.00;98984.25;6064525;23;20021;-87
2024/01/06 06:21:28;;;;;;;28.23;13.73;;;;;;;4.72;100.00;98987.88;6053775;23;20026;-87
2024/01/06 06:23:55;;;;;;;21.48;10.40;;;;;;;4.73;99.77;98990.38;6073181;23;20018;-86
2024/01/06 06:26:22;;;;;;;28.58;12.63;;;;;;;4.69;99.81;98993.38;6113903;23;20450;-86
2024/01/06 06:28:51;;;;;;;28.45;12.52;;;;;;;4.74;99.29;99002.56;6054093;23;20025;-87
2024/01/06 06:31:18;;;;;;;30.58;12.70;;;;;;;4.76;98.78;98999.84;6088765;23;20029;-87
2024/01/06 06:33:48;;;;;;;27.45;10.88;;;;;;;4.69;99.12;98991.56;6090465;23;20037;-87
2024/01/06 06:36:15;;;;;;;20.67;11.05;;;;;;;4.73;98.78;99002.69;6113255;23;20476;-87
2024/01/06 06:38:42;;;;;;;24.55;11.70;;;;;;;4.70;99.17;98995.03;6089417;23;20045;-87
2024/01/06 06:41:09;;;;;;;22.15;11.55;;;;;;;4.73;99.47;99005.31;6088561;23;20053;-87
2024/01/06 06:43:40;;;;;;;26.25;10.52;;;;;;;4.77;99.71;99014.66;6089737;23;20045;-87
2024/01/06 06:46:07;;;;;;;23.90;10.32;;;;;;;4.82;99.77;99016.91;6089263;23;20026;-86
2024/01/06 06:48:36;;;;;;;23.38;10.02;;;;;;;4.82;99.73;99017.75;6076517;23;20080;-87
2024/01/06 06:51:03;;;;;;;22.63;10.25;;;;;;;4.75;100.00;99014.75;6112662;23;20045;-87
2024/01/06 06:53:30;;;;;;;19.38;9.95;;;;;;;4.81;100.00;99025.75;6055419;23;20025;-87
2024/01/06 06:55:59;;;;;;;25.65;11.98;;;;;;;4.76;100.00;99031.38;6088744;23;20029;-86
2024/01/06 06:58:26;;;;;;;21.25;11.57;;;;;;;4.79;100.00;99034.59;6065014;23;20405;-86
2024/01/06 07:00:54;;;;;;;19.92;9.98;;;;;;;4.83;100.00;99045.72;6089894;23;20446;-86
2024/01/06 07:03:21;;;;;;;28.17;10.85;;;;;;;4.77;100.00;99059.34;6089095;23;20080;-86
2024/01/06 07:05:48;;;;;;;21.65;11.23;;;;;;;4.82;100.00;99056.38;6055118;23;20046;-87
2024/01/06 07:08:16;;;;;;;22.75;11.55;;;;;;;4.79;100.00;99050.38;6088777;23;20030;-86
2024/01/06 07:10:43;;;;;;;26.50;11.25;;;;;;;4.82;100.00;99041.44;6089539;23;20028;-87
2024/01/06 07:13:10;;;;;;;21.75;10.07;;;;;;;4.84;100.00;99049.22;6087395;23;20022;-86
2024/01/06 07:15:36;;;;;;;27.40;11.10;;;;;;;4.87;100.00;99056.84;6065905;23;20033;-87
2024/01/06 07:18:03;;;;;;;26.45;11.25;;;;;;;4.87;100.00;99059.50;6089380;23;20073;-86
2024/01/06 07:20:36;;;;;;;44.75;16.58;;;;;;;4.86;100.00;99060.44;6063402;23;20025;-87
2024/01/06 07:23:03;;;;;;;43.40;18.77;;;;;;;4.79;100.00;99063.53;6113726;23;20062;-87
2024/01/06 07:25:30;;;;;;;47.75;18.15;;;;;;;4.84;100.00;99072.88;6089343;23;20030;-87
2024/01/06 07:27:57;;;;;;;25.63;12.65;;;;;;;4.80;100.00;99067.00;6065034;23;20022;-86
2024/01/06 07:30:26;;;;;;;25.05;11.75;;;;;;;4.85;100.00;99066.66;6026781;23;20026;-87
2024/01/06 07:32:54;;;;;;;23.90;12.40;;;;;;;4.85;100.00;99072.75;6064632;23;20105;-86
2024/01/06 07:35:21;;;;;;;340.45;90.18;;;;;;;4.83;100.00;99079.91;6073768;23;20038;-86
2024/01/06 07:37:47;;;;;;;35.30;14.23;;;;;;;4.87;100.00;99088.41;6060775;23;20466;-86
2024/01/06 07:40:16;;;;;;;23.02;12.30;;;;;;;4.85;100.00;99091.16;6059053;23;20751;-86
2024/01/06 07:42:44;;;;;;;24.48;12.18;;;;;;;4.88;99.99;99079.56;6037415;23;20033;-86
2024/01/06 07:45:10;;;;;;;40.83;15.50;;;;;;;4.87;100.00;99084.00;6085423;23;20024;-86
2024/01/06 07:47:38;;;;;;;45.78;15.85;;;;;;;4.87;99.81;99091.88;6052571;23;20034;-86
2024/01/06 07:50:06;;;;;;;38.90;16.85;;;;;;;4.88;99.83;99093.53;6088257;23;20050;-87
2024/01/06 07:52:33;;;;;;;29.40;14.80;;;;;;;4.89;99.27;99089.97;6065695;23;20646;-86
2024/01/06 07:54:59;;;;;;;21.02;11.02;;;;;;;4.85;99.89;99099.06;6062142;23;20021;-86
2024/01/06 07:57:26;;;;;;;27.42;11.90;;;;;;;4.85;99.88;99096.41;6089225;23;20036;-87
2024/01/06 07:59:53;;;;;;;24.92;11.05;;;;;;;4.86;99.84;99102.50;6089148;23;20026;-85
2024/01/06 08:02:20;;;;;;;25.58;10.70;;;;;;;4.85;100.00;99101.69;6064823;23;20097;-86
2024/01/06 08:04:47;;;;;;;24.38;12.43;;;;;;;4.85;100.00;99106.13;6064766;23;20021;-86
2024/01/06 08:07:14;;;;;;;25.15;12.93;;;;;;;4.87;99.84;99110.31;6088094;23;20707;-86
2024/01/06 08:09:42;;;;;;;32.20;12.77;;;;;;;4.87;99.99;99118.19;6089705;23;20022;-86
2024/01/06 08:12:09;;;;;;;30.52;13.45;;;;;;;4.87;99.71;99118.19;6066550;23;20022;-86
2024/01/06 08:14:36;;;;;;;33.03;13.15;;;;;;;4.89;99.90;99121.56;6067173;23;20369;-85
2024/01/06 08:17:02;;;;;;;34.05;13.65;;;;;;;4.87;100.00;99118.19;6065613;23;20450;-85
2024/01/06 08:19:31;;;;;;;24.17;11.68;;;;;;;4.91;100.00;99111.75;6091289;23;20450;-86
2024/01/06 08:21:58;;;;;;;27.15;11.93;;;;;;;4.93;100.00;99099.28;6067059;23;20018;-85
2024/01/06 08:24:26;;;;;;;26.60;12.48;;;;;;;4.97;100.00;99090.22;6090214;23;20022;-85
2024/01/06 08:26:53;;;;;;;34.00;14.18;;;;;;;5.02;100.00;99105.66;6090615;23;20022;-86
2024/01/06 08:29:20;;;;;;;25.08;12.93;;;;;;;5.00;100.00;99112.81;6077278;23;20084;-86
2024/01/06 08:31:54;;;;;;;32.97;12.13;;;;;;;5.01;100.00;99122.38;6092110;23;20606;-84
2024/01/06 08:34:21;;;;;;;35.67;12.57;;;;;;;4.98;100.00;99120.81;6090639;23;20085;-83
2024/01/06 08:36:48;;;;;;;32.15;11.90;;;;;;;5.01;100.00;99122.38;6091059;23;20097;-83
2024/01/06 08:39:15;;;;;;;29.08;11.00;;;;;;;5.01;99.96;99125.00;6114441;23;20021;-84
2024/01/06 08:41:42;;;;;;;26.88;10.95;;;;;;;5.00;100.00;99128.63;6090805;23;20076;-83
2024/01/06 08:44:09;;;;;;;25.73;10.27;;;;;;;4.99;100.00;99130.41;6090271;23;20049;-83
2024/01/06 08:46:36;;;;;;;29.52;11.52;;;;;;;5.03;100.00;99130.16;6090388;23;20069;-83
2024/01/06 08:49:02;;;;;;;21.08;10.15;;;;;;;5.05;100.00;99123.00;6089924;23;20022;-83
2024/01/06 08:51:30;;;;;;;21.65;9.13;;;;;;;5.06;100.00;99128.13;6114970;23;20026;-84
2024/01/06 08:53:59;;;;;;;27.35;10.88;;;;;;;5.11;100.00;99128.63;6091476;23;20022;-83
2024/01/06 08:56:26;;;;;;;34.45;14.93;;;;;;;5.08;100.00;99130.66;6090799;23;20346;-83
2024/01/06 08:58:53;;;;;;;34.88;13.55;;;;;;;5.11;100.00;99135.69;6090407;23;20453;-83
2024/01/06 09:01:20;;;;;;;30.67;12.90;;;;;;;5.10;100.00;99137.47;6066230;23;20030;-83
2024/01/06 09:03:47;;;;;;;31.27;14.07;;;;;;;5.13;100.00;99145.13;6066841;23;20023;-82
2024/01/06 09:06:14;;;;;;;31.35;12.40;;;;;;;5.14;100.00;99140.69;6086931;23;20473;-84
2024/01/06 09:08:41;;;;;;;28.73;12.70;;;;;;;5.16;100.00;99146.69;6114956;23;20117;-87
2024/01/06 09:11:08;;;;;;;31.38;13.98;;;;;;;5.17;100.00;99143.94;6090270;23;20018;-85
2024/01/06 09:13:35;;;;;;;28.20;12.90;;;;;;;5.17;100.00;99143.94;6089143;23;20447;-84
2024/01/06 09:16:02;;;;;;;36.45;15.60;;;;;;;5.18;100.00;99147.41;6090286;23;20406;-84
2024/01/06 09:18:29;;;;;;;35.17;18.15;;;;;;;5.20;100.00;99154.22;6066287;23;20866;-85
2024/01/06 09:20:57;;;;;;;38.47;17.55;;;;;;;5.20;100.00;99153.41;6076001;23;20032;-85
2024/01/06 09:23:24;;;;;;;38.20;14.80;;;;;;;5.21;100.00;99160.31;6041528;23;20085;-84
2024/01/06 09:25:52;;;;;;;33.67;15.73;;;;;;;5.23;100.00;99159.25;6091290;23;20014;-85
2024/01/06 09:28:20;;;;;;;48.72;19.48;;;;;;;5.23;100.00;99161.88;6065460;23;20346;-84
2024/01/06 09:30:47;;;;;;;52.00;21.98;;;;;;;5.25;100.00;99151.25;6065891;23;20730;-85
2024/01/06 09:33:15;;;;;;;46.17;20.88;;;;;;;5.26;100.00;99154.72;6116571;23;20018;-85
2024/01/06 09:35:44;;;;;;;41.25;18.45;;;;;;;5.27;100.00;99151.97;6052571;23;20022;-85
2024/01/06 09:38:11;;;;;;;37.33;17.25;;;;;;;5.28;100.00;99153.63;6089812;23;20032;-85
2024/01/06 09:40:43;;;;;;;54.78;19.40;;;;;;;5.30;100.00;99150.91;6065325;23;20029;-85
2024/01/06 09:43:11;;;;;;;34.30;13.53;;;;;;;5.31;100.00;99163.09;6066478;23;20033;-85
2024/01/06 09:45:39;;;;;;;86.15;35.92;;;;;;;5.32;100.00;99170.06;6089646;23;20030;-85
2024/01/06 09:48:13;;;;;;;53.00;21.40;;;;;;;5.32;100.00;99170.88;6113848;23;20053;-85
2024/01/06 09:50:41;;;;;;;28.63;13.05;;;;;;;5.32;100.00;99165.63;6113824;23;20049;-85
2024/01/06 09:53:11;;;;;;;26.05;13.10;;;;;;;5.35;100.00;99164.53;6090876;23;20044;-84
2024/01/06 09:55:39;;;;;;;33.92;14.50;;;;;;;5.37;100.00;99167.91;6114995;23;20030;-84
2024/01/06 09:58:06;;;;;;;25.13;13.65;;;;;;;5.39;100.00;99171.22;6041459;23;20857;-85
2024/01/06 10:00:33;;;;;;;30.50;13.27;;;;;;;5.38;100.00;99170.41;6089965;23;20021;-85
2024/01/06 10:03:00;;;;;;;30.92;12.48;;;;;;;5.43;100.00;99164.78;6054233;23;20401;-85
2024/01/06 10:05:27;;;;;;;26.80;13.02;;;;;;;5.52;100.00;99166.69;6089389;23;20045;-87
2024/01/06 10:07:54;;;;;;;33.97;13.15;;;;;;;5.52;100.00;99166.69;6089331;23;20026;-87
2024/01/06 10:10:22;;;;;;;32.67;12.65;;;;;;;5.53;100.00;99167.53;6090371;23;20013;-86
2024/01/06 10:12:53;;;;;;;29.10;12.30;;;;;;;5.54;100.00;99169.19;6089738;23;20041;-87
2024/01/06 10:15:20;;;;;;;28.83;13.65;;;;;;;5.53;100.00;99172.81;6065336;23;20022;-87
2024/01/06 10:17:47;;;;;;;23.52;10.98;;;;;;;5.56;100.00;99173.38;6089156;23;20026;-87
2024/01/06 10:20:15;;;;;;;30.90;15.95;;;;;;;5.54;100.00;99167.41;6065442;23;20338;-87
2024/01/06 10:22:42;;;;;;;33.08;14.85;;;;;;;5.58;100.00;99175.91;6114191;23;20100;-85
2024/01/06 10:25:11;;;;;;;28.58;13.50;;;;;;;5.61;100.00;99173.88;6064291;23;20021;-83
2024/01/06 10:27:38;;;;;;;20.15;10.43;;;;;;;5.63;100.00;99182.50;6076962;23;20022;-83
2024/01/06 10:30:09;;;;;;;21.30;9.18;;;;;;;5.62;100.00;99175.56;6089348;23;20041;-83
2024/01/06 10:32:37;;;;;;;23.17;10.48;;;;;;;5.64;100.00;99178.88;6089738;23;20029;-83
2024/01/06 10:35:06;;;;;;;20.92;9.73;;;;;;;5.65;100.00;99183.22;6065340;23;20041;-83
2024/01/06 10:37:33;;;;;;;26.13;9.75;;;;;;;5.68;100.00;99183.94;6065285;23;20025;-83
2024/01/06 10:40:13;;;;;;;24.92;10.77;;;;;;;5.64;100.00;99178.88;6088548;23;20394;-84
2024/01/06 10:42:41;;;;;;;26.15;11.18;;;;;;;5.70;100.00;99171.47;6089477;23;20018;-84
2024/01/06 10:45:10;;;;;;;38.42;15.80;;;;;;;5.70;100.00;99180.22;6090033;23;20022;-84
2024/01/06 10:47:37;;;;;;;20.42;9.70;;;;;;;5.72;100.00;99173.00;6099326;23;20097;-83
2024/01/06 10:50:05;;;;;;;20.95;8.70;;;;;;;5.67;100.00;99167.28;6088866;23;20042;-83
2024/01/06 10:52:32;;;;;;;25.60;10.32;;;;;;;5.69;100.00;99180.34;6089395;23;20029;-84
2024/01/06 10:54:59;;;;;;;23.90;8.40;;;;;;;5.70;100.00;99174.97;6089772;23;20094;-83
2024/01/06 10:57:28;;;;;;;23.92;8.68;;;;;;;5.71;100.00;99168.72;6066067;23;20026;-83
2024/01/06 10:59:55;;;;;;;17.50;8.30;;;;;;;5.72;100.00;99178.28;6066378;23;20443;-83
2024/01/06 11:02:25;;;;;;;19.75;7.90;;;;;;;5.73;100.00;99177.34;6088950;23;20030;-84
2024/01/06 11:04:52;;;;;;;18.65;8.27;;;;;;;5.75;100.00;99177.19;6090052;23;20053;-83
2024/01/06 11:07:20;;;;;;;17.85;8.77;;;;;;;5.75;100.00;99180.69;6088646;23;20073;-84
2024/01/06 11:09:56;;;;;;;22.33;9.77;;;;;;;5.75;100.00;99179.84;6088938;23;20097;-84
2024/01/06 11:12:23;;;;;;;21.60;9.05;;;;;;;5.78;100.00;99172.53;6088731;23;20021;-84
2024/01/06 11:14:52;;;;;;;21.48;8.30;;;;;;;5.78;100.00;99175.19;6113373;23;20045;-85
2024/01/06 11:17:50;;;;;;;22.85;9.45;;;;;;;5.75;100.00;99175.44;6088489;23;20025;-86
2024/01/06 11:20:17;;;;;;;16.67;7.18;;;;;;;5.78;100.00;99169.09;6111615;23;20942;-87
2024/01/06 11:22:45;;;;;;;22.42;6.72;;;;;;;5.79;100.00;99168.09;6066537;23;20022;-87